Time;durP1;ratioP1;P1;durP2;ratioP2;P2;SDS_P1;SDS_P2;PMS_P1;PMS_P2;Temp;Humidity;BMP_temperature;BMP_pressure;BME280_temperature;BME280_humidity;BME280_pressure;Samples;Min_cycle;Max_cycle;Signal;HPM_P1;HPM_P2
2021/08/19 00:16:54;;;;;;;20.02;9.80;;;;;;;;;;4624876;28;20111;-65
2021/08/19 00:19:19;;;;;;;17.05;9.20;;;;;;;;;;4213841;34;20113;-66
2021/08/19 00:21:45;;;;;;;24.23;8.88;;;;;;;;;;4208203;34;20184;-65
2021/08/19 00:24:11;;;;;;;18.05;9.30;;;;;;;;;;4205096;34;20553;-65
2021/08/19 00:26:37;;;;;;;20.90;10.38;;;;;;;;;;4193020;34;20422;-66
2021/08/19 00:29:03;;;;;;;20.55;9.70;;;;;;;;;;4178582;34;20190;-66
2021/08/19 00:31:29;;;;;;;15.90;9.13;;;;;;;;;;4191354;34;20209;-66
2021/08/19 00:33:55;;;;;;;17.55;9.23;;;;;;;;;;4185505;34;20237;-66
2021/08/19 00:36:20;;;;;;;17.33;8.25;;;;;;;;;;4191372;34;20121;-66
2021/08/19 00:38:46;;;;;;;18.85;9.57;;;;;;;;;;4191231;34;20534;-66
2021/08/19 00:41:12;;;;;;;15.93;9.18;;;;;;;;;;4191057;34;20126;-65
2021/08/19 00:43:38;;;;;;;21.73;9.25;;;;;;;;;;4198840;34;20140;-65
2021/08/19 00:46:26;;;;;;;18.85;9.40;;;;;;;;;;4191928;34;20113;-65
2021/08/19 00:49:22;;;;;;;13.62;7.50;;;;;;;;;;4204959;34;20133;-65
2021/08/19 00:51:48;;;;;;;;;;;;;;;;;;4195104;34;20134;-65
2021/08/19 00:54:16;;;;;;;13.45;8.85;;;;;;;;;;4191143;34;20078;-65
2021/08/19 00:56:42;;;;;;;12.20;8.00;;;;;;;;;;4191040;34;20177;-65
2021/08/19 00:59:15;;;;;;;20.65;10.02;;;;;;;;;;4191183;34;20568;-65
2021/08/19 01:01:41;;;;;;;20.58;9.38;;;;;;;;;;4178213;34;20617;-65
2021/08/19 01:04:07;;;;;;;16.45;9.02;;;;;;;;;;4190907;34;20145;-65
2021/08/19 01:06:34;;;;;;;14.77;9.43;;;;;;;;;;4189359;34;20099;-65
2021/08/19 01:09:00;;;;;;;18.80;9.27;;;;;;;;;;4190966;34;20118;-65
2021/08/19 01:11:26;;;;;;;17.02;9.48;;;;;;;;;;4190864;34;20132;-65
2021/08/19 01:13:52;;;;;;;21.05;9.93;;;;;;;;;;4190699;34;20232;-65
2021/08/19 01:16:18;;;;;;;19.08;8.82;;;;;;;;;;4190419;34;20525;-66
2021/08/19 01:18:44;;;;;;;15.68;9.07;;;;;;;;;;4215234;34;20188;-66
2021/08/19 01:21:11;;;;;;;18.05;9.38;;;;;;;;;;4218451;33;20125;-66
2021/08/19 01:23:38;;;;;;;21.05;9.73;;;;;;;;;;4205549;34;20129;-66
2021/08/19 01:26:07;;;;;;;16.58;9.02;;;;;;;;;;4218429;33;20121;-66
2021/08/19 01:28:36;;;;;;;15.48;9.10;;;;;;;;;;4205685;34;20101;-66
2021/08/19 01:31:02;;;;;;;19.35;10.02;;;;;;;;;;4218248;33;20125;-66
2021/08/19 01:33:30;;;;;;;14.43;9.05;;;;;;;;;;4218395;34;20092;-66
2021/08/19 01:35:56;;;;;;;13.30;8.77;;;;;;;;;;4218261;33;20136;-66
2021/08/19 01:38:32;;;;;;;14.95;8.95;;;;;;;;;;4218559;34;20529;-66
2021/08/19 01:40:58;;;;;;;22.60;10.10;;;;;;;;;;4218193;33;20199;-66
2021/08/19 01:43:28;;;;;;;21.62;12.57;;;;;;;;;;4218508;34;20137;-66
2021/08/19 01:46:04;;;;;;;20.85;9.18;;;;;;;;;;4217926;33;20110;-66
2021/08/19 01:48:30;;;;;;;17.35;9.40;;;;;;;;;;4218208;34;20121;-66
2021/08/19 01:50:55;;;;;;;15.55;8.90;;;;;;;;;;4216811;34;20204;-66
2021/08/19 01:53:24;;;;;;;18.08;9.50;;;;;;;;;;4204223;34;20124;-66
2021/08/19 01:55:59;;;;;;;14.85;9.13;;;;;;;;;;4204112;34;20117;-66
2021/08/19 01:58:26;;;;;;;20.70;10.32;;;;;;;;;;4204470;34;20454;-66
2021/08/19 02:00:51;;;;;;;19.20;9.43;;;;;;;;;;4204129;34;20488;-66
2021/08/19 02:03:17;;;;;;;21.27;10.55;;;;;;;;;;4204178;34;20208;-66
2021/08/19 02:05:48;;;;;;;15.80;9.60;;;;;;;;;;4203954;34;20541;-66
2021/08/19 02:08:14;;;;;;;22.60;9.13;;;;;;;;;;4204114;34;20117;-66
2021/08/19 02:10:39;;;;;;;28.65;9.90;;;;;;;;;;4205173;34;20587;-66
2021/08/19 02:13:05;;;;;;;22.30;11.07;;;;;;;;;;4206453;34;20096;-66
2021/08/19 02:15:31;;;;;;;18.62;9.43;;;;;;;;;;4206087;34;20143;-66
2021/08/19 02:17:57;;;;;;;19.45;9.65;;;;;;;;;;4209640;34;20097;-67
2021/08/19 02:20:23;;;;;;;17.40;9.63;;;;;;;;;;4220172;34;20109;-66
2021/08/19 02:22:49;;;;;;;18.08;9.65;;;;;;;;;;4210396;33;20114;-67
2021/08/19 02:25:16;;;;;;;19.65;10.23;;;;;;;;;;4206040;34;20570;-67
2021/08/19 02:27:42;;;;;;;17.50;10.60;;;;;;;;;;4206224;34;20132;-67
2021/08/19 02:30:09;;;;;;;28.30;10.55;;;;;;;;;;4206379;34;20097;-67
2021/08/19 02:32:35;;;;;;;18.50;9.25;;;;;;;;;;4205970;34;20122;-67
2021/08/19 02:35:01;;;;;;;17.92;9.43;;;;;;;;;;4206066;34;20129;-67
2021/08/19 02:37:27;;;;;;;18.02;9.02;;;;;;;;;;4206022;34;20097;-66
2021/08/19 02:39:53;;;;;;;17.92;10.02;;;;;;;;;;4206311;34;20108;-67
2021/08/19 02:42:18;;;;;;;24.30;9.73;;;;;;;;;;4192903;34;20538;-66
2021/08/19 02:44:44;;;;;;;22.70;10.68;;;;;;;;;;4206037;34;20533;-66
2021/08/19 02:47:10;;;;;;;22.23;9.35;;;;;;;;;;4205901;34;20129;-65
2021/08/19 02:49:36;;;;;;;23.67;11.50;;;;;;;;;;4206148;34;20132;-66
2021/08/19 02:52:02;;;;;;;36.38;10.68;;;;;;;;;;4205734;34;20229;-66
2021/08/19 02:54:28;;;;;;;26.35;10.05;;;;;;;;;;4205930;34;20129;-66
2021/08/19 02:56:54;;;;;;;25.20;9.80;;;;;;;;;;4201321;34;20445;-66
2021/08/19 02:59:19;;;;;;;21.83;9.43;;;;;;;;;;4198561;34;20535;-68
2021/08/19 03:01:45;;;;;;;28.38;11.27;;;;;;;;;;4192173;34;20458;-65
2021/08/19 03:04:11;;;;;;;29.60;10.63;;;;;;;;;;4205736;34;20537;-65
2021/08/19 03:06:37;;;;;;;22.58;10.13;;;;;;;;;;4204683;34;20118;-67
2021/08/19 03:09:03;;;;;;;23.00;9.70;;;;;;;;;;4204054;34;20104;-66
2021/08/19 03:11:29;;;;;;;21.02;10.43;;;;;;;;;;4204374;34;20110;-66
2021/08/19 03:13:55;;;;;;;22.05;10.20;;;;;;;;;;4204220;34;20137;-66
2021/08/19 03:16:20;;;;;;;25.50;10.43;;;;;;;;;;4203160;34;20145;-66
2021/08/19 03:18:46;;;;;;;16.77;9.32;;;;;;;;;;4205834;34;20236;-67
2021/08/19 03:21:12;;;;;;;28.87;12.25;;;;;;;;;;4204514;34;20121;-67
2021/08/19 03:23:38;;;;;;;16.92;9.73;;;;;;;;;;4218258;34;20105;-67
2021/08/19 03:26:05;;;;;;;21.85;9.57;;;;;;;;;;4218522;34;20155;-66
2021/08/19 03:28:32;;;;;;;21.50;10.23;;;;;;;;;;4218394;34;20096;-66
2021/08/19 03:30:58;;;;;;;22.30;10.93;;;;;;;;;;4218241;34;20644;-66
2021/08/19 03:33:24;;;;;;;20.27;10.45;;;;;;;;;;4218317;34;20119;-66
2021/08/19 03:35:50;;;;;;;20.75;10.30;;;;;;;;;;4218173;34;20148;-66
2021/08/19 03:38:16;;;;;;;28.40;10.38;;;;;;;;;;4218256;34;20133;-67
2021/08/19 03:40:41;;;;;;;25.08;11.05;;;;;;;;;;4218342;34;20106;-68
2021/08/19 03:43:07;;;;;;;28.87;10.52;;;;;;;;;;4218899;33;20557;-66
2021/08/19 03:45:33;;;;;;;28.62;10.57;;;;;;;;;;4217475;34;20128;-65
2021/08/19 03:47:59;;;;;;;18.98;10.65;;;;;;;;;;4217078;33;20128;-66
2021/08/19 03:50:25;;;;;;;20.35;9.95;;;;;;;;;;4217091;34;20152;-66
2021/08/19 03:52:51;;;;;;;22.10;10.73;;;;;;;;;;4217060;33;20118;-66
2021/08/19 03:55:17;;;;;;;20.83;10.30;;;;;;;;;;4217300;34;20128;-66
2021/08/19 03:57:43;;;;;;;20.98;9.57;;;;;;;;;;4204574;34;20120;-66
2021/08/19 04:00:09;;;;;;;20.80;10.13;;;;;;;;;;4218877;34;20126;-66
2021/08/19 04:02:35;;;;;;;32.67;11.82;;;;;;;;;;4219121;33;20472;-66
2021/08/19 04:05:01;;;;;;;25.60;10.57;;;;;;;;;;4219372;34;20117;-66
2021/08/19 04:07:27;;;;;;;21.85;10.75;;;;;;;;;;4218953;33;20308;-66
2021/08/19 04:09:53;;;;;;;25.98;11.40;;;;;;;;;;4219113;34;20137;-66
2021/08/19 04:12:18;;;;;;;29.55;10.85;;;;;;;;;;4219028;33;20121;-66
2021/08/19 04:14:45;;;;;;;34.30;10.75;;;;;;;;;;4206435;34;20201;-67
2021/08/19 04:17:10;;;;;;;21.33;9.88;;;;;;;;;;4218845;33;20461;-66
2021/08/19 04:19:36;;;;;;;26.87;10.50;;;;;;;;;;4218999;34;20127;-66
2021/08/19 04:22:02;;;;;;;24.30;10.25;;;;;;;;;;4218895;34;20113;-66
2021/08/19 04:24:28;;;;;;;20.62;9.40;;;;;;;;;;4218950;34;20133;-66
2021/08/19 04:26:54;;;;;;;21.48;10.52;;;;;;;;;;4218974;34;20552;-66
2021/08/19 04:29:21;;;;;;;21.77;8.98;;;;;;;;;;4219281;34;20113;-66
2021/08/19 04:31:46;;;;;;;24.95;9.88;;;;;;;;;;4218982;34;20137;-66
2021/08/19 04:34:12;;;;;;;20.10;9.90;;;;;;;;;;4218840;34;20121;-66
2021/08/19 04:36:38;;;;;;;22.33;9.98;;;;;;;;;;4219157;34;20208;-67
2021/08/19 04:39:04;;;;;;;15.23;8.50;;;;;;;;;;4218877;34;20125;-66
2021/08/19 04:41:30;;;;;;;22.05;10.57;;;;;;;;;;4218711;34;20121;-66
2021/08/19 04:43:56;;;;;;;21.33;10.43;;;;;;;;;;4218833;34;20101;-65
2021/08/19 04:46:22;;;;;;;26.55;10.07;;;;;;;;;;4218098;33;20117;-67
2021/08/19 04:48:49;;;;;;;16.75;8.80;;;;;;;;;;4218113;34;20132;-71
2021/08/19 04:51:16;;;;;;;19.90;9.23;;;;;;;;;;4218296;33;20085;-68
2021/08/19 04:53:42;;;;;;;23.60;10.25;;;;;;;;;;4217935;34;20288;-68
2021/08/19 04:56:08;;;;;;;25.00;10.73;;;;;;;;;;4218012;33;20132;-68
2021/08/19 04:58:33;;;;;;;17.17;9.00;;;;;;;;;;4217249;34;20138;-68
2021/08/19 05:00:59;;;;;;;25.58;10.45;;;;;;;;;;4218611;33;20106;-68
2021/08/19 05:03:25;;;;;;;19.45;9.32;;;;;;;;;;4218650;34;20525;-67
2021/08/19 05:05:51;;;;;;;21.62;9.10;;;;;;;;;;4218718;34;20116;-67
2021/08/19 05:08:17;;;;;;;18.12;9.48;;;;;;;;;;4218552;34;20129;-67
2021/08/19 05:10:43;;;;;;;18.27;9.13;;;;;;;;;;4218799;34;20544;-68
2021/08/19 05:13:09;;;;;;;17.75;9.23;;;;;;;;;;4218501;33;20143;-68
2021/08/19 05:15:34;;;;;;;18.83;9.70;;;;;;;;;;4218401;34;20764;-68
2021/08/19 05:18:01;;;;;;;21.67;9.30;;;;;;;;;;4218272;33;20521;-68
2021/08/19 05:20:28;;;;;;;15.68;9.38;;;;;;;;;;4218439;34;20110;-68
2021/08/19 05:22:53;;;;;;;20.80;10.13;;;;;;;;;;4218359;34;20143;-68
2021/08/19 05:25:19;;;;;;;17.92;9.27;;;;;;;;;;4218350;34;20559;-68
2021/08/19 05:27:45;;;;;;;25.42;10.07;;;;;;;;;;4218333;34;20513;-67
2021/08/19 05:30:11;;;;;;;16.15;8.82;;;;;;;;;;4218132;34;20123;-68
2021/08/19 05:32:39;;;;;;;24.37;9.98;;;;;;;;;;4218065;34;20117;-68
2021/08/19 05:35:05;;;;;;;19.67;9.73;;;;;;;;;;4218060;34;20129;-67
2021/08/19 05:37:31;;;;;;;18.05;9.18;;;;;;;;;;4218055;34;20122;-67
2021/08/19 05:39:57;;;;;;;19.80;9.55;;;;;;;;;;4218119;34;20295;-68
2021/08/19 05:42:23;;;;;;;17.35;9.77;;;;;;;;;;4218185;34;20121;-68
2021/08/19 05:44:49;;;;;;;27.83;10.27;;;;;;;;;;4218359;34;20125;-68
2021/08/19 05:47:15;;;;;;;20.20;9.65;;;;;;;;;;4220248;34;20145;-68
2021/08/19 05:49:41;;;;;;;20.23;10.05;;;;;;;;;;4220185;34;20469;-68
2021/08/19 05:52:08;;;;;;;18.30;9.07;;;;;;;;;;4220059;34;20125;-68
2021/08/19 05:54:37;;;;;;;17.98;9.85;;;;;;;;;;4220394;34;20128;-68
2021/08/19 05:57:03;;;;;;;18.87;9.95;;;;;;;;;;4220082;34;20190;-69
2021/08/19 05:59:29;;;;;;;23.62;9.77;;;;;;;;;;4220012;34;20204;-68
2021/08/19 06:01:55;;;;;;;17.35;9.88;;;;;;;;;;4219985;34;20199;-68
2021/08/19 06:04:21;;;;;;;23.92;10.10;;;;;;;;;;4220012;34;20220;-69
2021/08/19 06:06:47;;;;;;;31.17;10.20;;;;;;;;;;4220073;34;20554;-68
2021/08/19 06:09:13;;;;;;;17.40;10.18;;;;;;;;;;4220105;34;20196;-69
2021/08/19 06:11:39;;;;;;;17.30;8.27;;;;;;;;;;4207117;34;20092;-69
2021/08/19 06:14:05;;;;;;;24.58;8.65;;;;;;;;;;4219951;34;20192;-69
2021/08/19 06:16:31;;;;;;;20.08;8.98;;;;;;;;;;4219762;34;20458;-70
2021/08/19 06:18:59;;;;;;;20.02;8.82;;;;;;;;;;4219934;34;20457;-72
2021/08/19 06:21:26;;;;;;;17.83;9.00;;;;;;;;;;4219934;34;20152;-69
2021/08/19 06:23:52;;;;;;;21.67;8.38;;;;;;;;;;4207261;34;20486;-69
2021/08/19 06:26:18;;;;;;;28.77;10.68;;;;;;;;;;4206945;34;20116;-67
2021/08/19 06:28:44;;;;;;;18.48;8.77;;;;;;;;;;4219836;34;20148;-68
2021/08/19 06:31:10;;;;;;;22.02;9.35;;;;;;;;;;4219943;34;20101;-71
2021/08/19 06:33:36;;;;;;;26.10;10.02;;;;;;;;;;4218454;34;20148;-69
2021/08/19 06:36:02;;;;;;;16.85;8.40;;;;;;;;;;4219722;34;20141;-69
2021/08/19 06:38:28;;;;;;;23.25;8.88;;;;;;;;;;4219747;34;20106;-69
2021/08/19 06:40:54;;;;;;;22.90;8.75;;;;;;;;;;4219987;34;20205;-72
2021/08/19 06:43:20;;;;;;;15.55;7.93;;;;;;;;;;4219942;34;20121;-69
2021/08/19 06:45:46;;;;;;;19.08;7.70;;;;;;;;;;4219576;34;20118;-69
2021/08/19 06:48:12;;;;;;;17.12;7.93;;;;;;;;;;4220041;34;20200;-70
2021/08/19 06:50:37;;;;;;;18.23;9.18;;;;;;;;;;4219663;34;20149;-71
2021/08/19 06:53:03;;;;;;;15.75;8.68;;;;;;;;;;4219605;34;20120;-70
2021/08/19 06:55:29;;;;;;;24.77;8.73;;;;;;;;;;4219342;34;20120;-68
2021/08/19 06:57:56;;;;;;;17.23;7.78;;;;;;;;;;4219830;34;20123;-69
2021/08/19 07:00:22;;;;;;;18.48;8.40;;;;;;;;;;4219590;34;20128;-69
2021/08/19 07:02:47;;;;;;;17.95;8.35;;;;;;;;;;4219623;34;20129;-68
2021/08/19 07:05:13;;;;;;;18.83;8.45;;;;;;;;;;4219563;34;20126;-71
2021/08/19 07:07:39;;;;;;;14.73;7.87;;;;;;;;;;4219369;34;20102;-69
2021/08/19 07:10:07;;;;;;;21.58;7.65;;;;;;;;;;4219578;34;20108;-68
2021/08/19 07:12:33;;;;;;;21.87;8.18;;;;;;;;;;4219518;34;20192;-69
2021/08/19 07:14:59;;;;;;;21.00;9.45;;;;;;;;;;4206929;34;20446;-68
2021/08/19 07:17:24;;;;;;;20.85;8.48;;;;;;;;;;4219127;34;20133;-69
2021/08/19 07:19:50;;;;;;;18.83;7.68;;;;;;;;;;4219372;34;20131;-69
2021/08/19 07:22:16;;;;;;;16.90;7.60;;;;;;;;;;4219566;34;20117;-70
2021/08/19 07:24:43;;;;;;;15.35;8.02;;;;;;;;;;4219335;34;20117;-68
2021/08/19 07:27:09;;;;;;;14.68;8.07;;;;;;;;;;4217827;34;20537;-68
2021/08/19 07:29:35;;;;;;;18.48;7.45;;;;;;;;;;4219684;34;20139;-70
2021/08/19 07:32:02;;;;;;;11.55;6.35;;;;;;;;;;4219395;34;20132;-69
2021/08/19 07:34:28;;;;;;;15.23;6.47;;;;;;;;;;4219283;34;20121;-69
2021/08/19 07:36:53;;;;;;;17.73;7.40;;;;;;;;;;4219412;34;20553;-69
2021/08/19 07:39:19;;;;;;;21.98;7.72;;;;;;;;;;4219293;34;20144;-69
2021/08/19 07:41:45;;;;;;;18.12;8.05;;;;;;;;;;4206209;34;20612;-69
2021/08/19 07:44:11;;;;;;;13.48;6.53;;;;;;;;;;4219323;34;20109;-70
2021/08/19 07:46:37;;;;;;;18.33;7.60;;;;;;;;;;4219085;34;20177;-69
2021/08/19 07:49:03;;;;;;;18.80;7.30;;;;;;;;;;4219278;34;20137;-69
2021/08/19 07:51:34;;;;;;;14.32;8.23;;;;;;;;;;4219316;34;20112;-72
2021/08/19 07:54:00;;;;;;;17.67;8.15;;;;;;;;;;4219350;34;20193;-69
2021/08/19 07:56:25;;;;;;;15.90;7.60;;;;;;;;;;4219827;34;20129;-67
2021/08/19 07:58:51;;;;;;;17.05;8.30;;;;;;;;;;4219331;34;20105;-67
2021/08/19 08:01:17;;;;;;;17.25;8.45;;;;;;;;;;4219134;34;20472;-67
2021/08/19 08:03:43;;;;;;;14.57;6.60;;;;;;;;;;4219227;34;20110;-67
2021/08/19 08:06:10;;;;;;;16.02;6.62;;;;;;;;;;4219184;34;20133;-67
2021/08/19 08:08:36;;;;;;;14.00;7.80;;;;;;;;;;4206173;34;20212;-66
2021/08/19 08:11:02;;;;;;;21.87;7.80;;;;;;;;;;4219146;34;20141;-66
2021/08/19 08:13:28;;;;;;;16.98;7.70;;;;;;;;;;4219070;34;20128;-67
2021/08/19 08:15:53;;;;;;;19.67;6.85;;;;;;;;;;4219062;34;20126;-67
2021/08/19 08:18:19;;;;;;;12.88;7.68;;;;;;;;;;4219052;34;20090;-68
2021/08/19 08:20:45;;;;;;;14.93;7.47;;;;;;;;;;4219042;34;20112;-67
2021/08/19 08:23:11;;;;;;;18.92;7.05;;;;;;;;;;4219298;34;20225;-67
2021/08/19 08:25:37;;;;;;;16.75;6.53;;;;;;;;;;4218949;34;20132;-67
2021/08/19 08:28:05;;;;;;;14.02;6.90;;;;;;;;;;4219201;34;20097;-67
2021/08/19 08:30:32;;;;;;;14.80;8.00;;;;;;;;;;4217972;34;20148;-68
2021/08/19 08:32:58;;;;;;;15.35;7.10;;;;;;;;;;4205220;34;20098;-68
2021/08/19 08:35:24;;;;;;;23.58;7.75;;;;;;;;;;4218767;34;20548;-67
2021/08/19 08:37:50;;;;;;;12.48;5.97;;;;;;;;;;4206073;34;20093;-67
2021/08/19 08:40:18;;;;;;;16.40;6.72;;;;;;;;;;4218983;34;20207;-67
2021/08/19 08:42:45;;;;;;;13.65;6.90;;;;;;;;;;4218916;34;20189;-67
2021/08/19 08:45:12;;;;;;;10.68;6.32;;;;;;;;;;4218954;34;20102;-66
2021/08/19 08:47:39;;;;;;;18.12;6.35;;;;;;;;;;4218449;34;20109;-66
2021/08/19 08:50:06;;;;;;;10.23;5.57;;;;;;;;;;4206106;34;20513;-67
2021/08/19 08:52:36;;;;;;;15.63;6.10;;;;;;;;;;4206083;34;20132;-68
2021/08/19 08:55:02;;;;;;;12.15;6.68;;;;;;;;;;4205963;34;20098;-67
2021/08/19 08:57:29;;;;;;;13.73;5.72;;;;;;;;;;4218659;34;20124;-67
2021/08/19 08:59:55;;;;;;;17.52;6.85;;;;;;;;;;4205885;34;20109;-68
2021/08/19 09:02:21;;;;;;;9.43;5.37;;;;;;;;;;4218425;34;20128;-67
2021/08/19 09:04:47;;;;;;;17.58;6.10;;;;;;;;;;4220106;33;20446;-67
2021/08/19 09:07:13;;;;;;;17.40;6.30;;;;;;;;;;4219499;33;20125;-68
2021/08/19 09:09:39;;;;;;;15.25;6.25;;;;;;;;;;4232587;33;20113;-67
2021/08/19 09:12:06;;;;;;;9.38;5.43;;;;;;;;;;4219334;33;20125;-66
2021/08/19 09:14:41;;;;;;;12.88;6.37;;;;;;;;;;4232488;33;20093;-67
2021/08/19 09:17:06;;;;;;;14.80;6.93;;;;;;;;;;4232090;33;20117;-66
2021/08/19 09:19:34;;;;;;;14.77;6.50;;;;;;;;;;4233439;33;20300;-67
2021/08/19 09:22:01;;;;;;;16.40;6.75;;;;;;;;;;4234329;33;20116;-67
2021/08/19 09:24:28;;;;;;;12.30;6.62;;;;;;;;;;4234411;33;20101;-66
2021/08/19 09:26:55;;;;;;;11.32;6.00;;;;;;;;;;4234456;33;20133;-67
2021/08/19 09:29:26;;;;;;;11.18;6.22;;;;;;;;;;4229819;33;20502;-67
2021/08/19 09:32:06;;;;;;;10.05;5.45;;;;;;;;;;4225871;33;20169;-68
2021/08/19 09:34:32;;;;;;;11.68;6.43;;;;;;;;;;4196974;34;20093;-66
2021/08/19 09:37:02;;;;;;;12.27;6.97;;;;;;;;;;4195609;34;20444;-67
2021/08/19 09:39:38;;;;;;;9.68;5.15;;;;;;;;;;4220454;34;20437;-65
2021/08/19 09:42:06;;;;;;;12.50;6.50;;;;;;;;;;4196309;34;20184;-67
2021/08/19 09:44:37;;;;;;;11.15;5.60;;;;;;;;;;4220141;34;20194;-64
2021/08/19 09:47:04;;;;;;;11.63;6.22;;;;;;;;;;4220002;34;20548;-68
2021/08/19 09:49:34;;;;;;;15.43;6.37;;;;;;;;;;4220465;34;20457;-68
2021/08/19 09:52:01;;;;;;;8.98;5.40;;;;;;;;;;4219990;34;20140;-66
2021/08/19 09:54:29;;;;;;;9.85;5.32;;;;;;;;;;4207244;34;20117;-66
2021/08/19 09:56:55;;;;;;;17.15;6.10;;;;;;;;;;4220057;34;20185;-67
2021/08/19 09:59:22;;;;;;;11.10;6.47;;;;;;;;;;4220042;34;20227;-67
2021/08/19 10:01:48;;;;;;;16.12;6.72;;;;;;;;;;4219853;34;20575;-67
2021/08/19 10:04:14;;;;;;;14.63;6.28;;;;;;;;;;4220109;34;20201;-66
2021/08/19 10:06:41;;;;;;;16.92;6.37;;;;;;;;;;4219998;34;20125;-65
2021/08/19 10:09:07;;;;;;;11.48;5.97;;;;;;;;;;4219961;34;20116;-68
2021/08/19 10:11:33;;;;;;;10.63;5.12;;;;;;;;;;4220191;34;20213;-68
2021/08/19 10:14:00;;;;;;;12.43;6.37;;;;;;;;;;4220020;34;20113;-68
2021/08/19 10:16:26;;;;;;;9.50;6.20;;;;;;;;;;4195421;34;20101;-68
2021/08/19 10:18:52;;;;;;;15.55;6.00;;;;;;;;;;4195621;34;20168;-70
2021/08/19 10:21:18;;;;;;;16.30;6.47;;;;;;;;;;4206927;34;20116;-70
2021/08/19 10:23:46;;;;;;;12.40;5.40;;;;;;;;;;4206966;34;20137;-69
2021/08/19 10:26:17;;;;;;;10.82;5.28;;;;;;;;;;4195455;34;20140;-67
2021/08/19 10:28:45;;;;;;;11.68;6.10;;;;;;;;;;4219935;34;20196;-67
2021/08/19 10:31:11;;;;;;;11.80;5.40;;;;;;;;;;4227367;33;20434;-67
2021/08/19 10:33:36;;;;;;;9.93;5.35;;;;;;;;;;4233874;33;20279;-69
2021/08/19 10:36:12;;;;;;;8.55;4.75;;;;;;;;;;4233741;33;20209;-69
2021/08/19 10:38:39;;;;;;;11.48;4.75;;;;;;;;;;4233916;33;20120;-69
2021/08/19 10:41:30;;;;;;;10.85;4.15;;;;;;;;;;4233658;33;20147;-67
2021/08/19 10:44:16;;;;;;;7.75;4.82;;;;;;;;;;4233827;33;20177;-67
2021/08/19 10:46:50;;;;;;;12.48;4.28;;;;;;;;;;4233647;33;20188;-69
2021/08/19 10:49:39;;;;;;;8.68;4.72;;;;;;;;;;4220810;33;20539;-67
2021/08/19 10:52:08;;;;;;;6.70;4.57;;;;;;;;;;4215459;33;20124;-67
2021/08/19 10:54:41;;;;;;;12.00;4.43;;;;;;;;;;4233867;33;20193;-67
2021/08/19 10:57:27;;;;;;;6.80;4.10;;;;;;;;;;4233906;33;20123;-66
2021/08/19 11:00:01;;;;;;;10.18;3.95;;;;;;;;;;4233854;33;20101;-67
2021/08/19 11:02:46;;;;;;;6.60;4.05;;;;;;;;;;4233966;33;20120;-66
2021/08/19 11:05:21;;;;;;;;;;;;;;;;;;4227123;33;20102;-66
2021/08/19 11:07:54;;;;;;;6.90;4.23;;;;;;;;;;4219589;34;19958;-68
2021/08/19 11:10:21;;;;;;;6.82;3.80;;;;;;;;;;4219597;34;20196;-67
2021/08/19 11:12:47;;;;;;;8.25;4.18;;;;;;;;;;4219801;34;20119;-66
2021/08/19 11:15:13;;;;;;;9.85;4.03;;;;;;;;;;4219698;34;20125;-67
2021/08/19 11:17:50;;;;;;;5.47;3.67;;;;;;;;;;4219575;33;20228;-67
2021/08/19 11:20:30;;;;;;;4.85;3.60;;;;;;;;;;4219649;34;20117;-67
2021/08/19 11:23:11;;;;;;;5.10;3.12;;;;;;;;;;4219900;34;20113;-66
2021/08/19 11:25:39;;;;;;;8.80;3.78;;;;;;;;;;4219689;34;20129;-66
2021/08/19 11:28:18;;;;;;;7.28;4.10;;;;;;;;;;4219554;34;20113;-66
2021/08/19 11:30:51;;;;;;;6.50;3.80;;;;;;;;;;4224318;33;20145;-66
2021/08/19 11:33:18;;;;;;;5.35;3.47;;;;;;;;;;4220493;33;20196;-66
2021/08/19 11:35:46;;;;;;;13.35;4.32;;;;;;;;;;4233401;33;20133;-66
2021/08/19 11:38:16;;;;;;;6.80;3.25;;;;;;;;;;4233476;33;20115;-66
2021/08/19 11:40:44;;;;;;;7.18;3.95;;;;;;;;;;4220767;33;20220;-66
2021/08/19 11:43:27;;;;;;;11.23;4.43;;;;;;;;;;4232487;33;20104;-66
2021/08/19 11:46:19;;;;;;;7.97;4.37;;;;;;;;;;4233277;33;20549;-66
2021/08/19 11:48:53;;;;;;;8.45;3.92;;;;;;;;;;4233449;33;20108;-66
2021/08/19 11:51:22;;;;;;;9.00;3.00;;;;;;;;;;4233384;33;20129;-66
2021/08/19 11:53:55;;;;;;;3.70;2.60;;;;;;;;;;4233406;33;20191;-66
2021/08/19 11:56:22;;;;;;;7.57;3.00;;;;;;;;;;4233293;33;20113;-66
2021/08/19 11:58:50;;;;;;;8.75;3.00;;;;;;;;;;4209153;33;20115;-66
2021/08/19 12:01:15;;;;;;;5.43;3.10;;;;;;;;;;4220593;33;20460;-66
2021/08/19 12:03:43;;;;;;;4.53;2.90;;;;;;;;;;4233320;33;20128;-66
2021/08/19 12:06:13;;;;;;;4.87;3.05;;;;;;;;;;4233082;33;20109;-66
2021/08/19 12:08:50;;;;;;;3.20;2.10;;;;;;;;;;4233551;33;20169;-66
2021/08/19 12:11:23;;;;;;;5.68;3.28;;;;;;;;;;4233228;33;20177;-65
2021/08/19 12:13:52;;;;;;;4.65;3.05;;;;;;;;;;4220160;33;20109;-67
2021/08/19 12:16:22;;;;;;;6.50;3.37;;;;;;;;;;4232866;33;20132;-66
2021/08/19 12:19:33;;;;;;;6.80;3.50;;;;;;;;;;4233188;33;20394;-66
2021/08/19 12:21:59;;;;;;;7.82;3.30;;;;;;;;;;4231253;33;20097;-66
2021/08/19 12:24:35;;;;;;;8.25;3.37;;;;;;;;;;4233360;33;20211;-67
2021/08/19 12:27:17;;;;;;;5.35;3.67;;;;;;;;;;4233162;33;20104;-67
2021/08/19 12:29:51;;;;;;;6.30;3.70;;;;;;;;;;4232953;33;20270;-67
2021/08/19 12:32:24;;;;;;;;;;;;;;;;;;4233262;33;20200;-67
2021/08/19 12:35:03;;;;;;;8.80;4.03;;;;;;;;;;4232852;33;19989;-66
2021/08/19 12:37:30;;;;;;;5.53;3.12;;;;;;;;;;4232905;33;20101;-66
2021/08/19 12:39:56;;;;;;;5.18;3.42;;;;;;;;;;4232898;33;20544;-67
2021/08/19 12:42:31;;;;;;;6.80;3.42;;;;;;;;;;4233074;33;20215;-67
2021/08/19 12:45:07;;;;;;;8.75;3.70;;;;;;;;;;4232768;33;20529;-67
2021/08/19 12:47:40;;;;;;;9.90;4.43;;;;;;;;;;4232686;33;20197;-67
2021/08/19 12:50:07;;;;;;;14.30;5.50;;;;;;;;;;4232852;33;20113;-67
2021/08/19 12:52:33;;;;;;;10.68;5.65;;;;;;;;;;4232967;33;20116;-66
2021/08/19 12:55:08;;;;;;;10.07;4.87;;;;;;;;;;4232510;33;20234;-66
2021/08/19 12:57:36;;;;;;;9.82;5.12;;;;;;;;;;4232659;33;20577;-67
2021/08/19 13:00:05;;;;;;;8.95;5.47;;;;;;;;;;4232757;33;20101;-67
2021/08/19 13:02:30;;;;;;;7.72;3.95;;;;;;;;;;4219843;33;20520;-66
2021/08/19 13:04:57;;;;;;;7.87;4.37;;;;;;;;;;4232421;33;20131;-67
2021/08/19 13:07:26;;;;;;;9.63;4.15;;;;;;;;;;4232761;33;20113;-67
2021/08/19 13:09:52;;;;;;;7.57;3.95;;;;;;;;;;4219394;33;20121;-67
2021/08/19 13:12:18;;;;;;;7.62;3.87;;;;;;;;;;4232349;33;20120;-65
2021/08/19 13:14:44;;;;;;;9.38;3.95;;;;;;;;;;4232770;33;20147;-66
2021/08/19 13:17:10;;;;;;;8.00;4.10;;;;;;;;;;4232330;33;20220;-66
2021/08/19 13:19:36;;;;;;;7.62;3.72;;;;;;;;;;4232519;33;20224;-66
2021/08/19 13:22:02;;;;;;;9.25;4.20;;;;;;;;;;4232454;33;20195;-66
2021/08/19 13:24:28;;;;;;;7.07;3.75;;;;;;;;;;4232451;33;20591;-65
2021/08/19 13:26:56;;;;;;;10.02;3.92;;;;;;;;;;4232455;33;20164;-66
2021/08/19 13:29:21;;;;;;;8.30;4.00;;;;;;;;;;4232405;33;20188;-66
2021/08/19 13:31:47;;;;;;;7.00;4.47;;;;;;;;;;4232407;33;20104;-65
2021/08/19 13:34:13;;;;;;;10.60;4.10;;;;;;;;;;4232723;33;20449;-66
2021/08/19 13:36:39;;;;;;;10.10;4.32;;;;;;;;;;4232264;33;20274;-67
2021/08/19 13:39:05;;;;;;;13.15;4.18;;;;;;;;;;4207690;33;20125;-65
2021/08/19 13:41:31;;;;;;;7.43;3.97;;;;;;;;;;4232220;33;20109;-63
2021/08/19 13:43:57;;;;;;;9.32;3.78;;;;;;;;;;4232122;33;20133;-63
2021/08/19 13:46:23;;;;;;;6.37;4.18;;;;;;;;;;4232035;33;20109;-65
2021/08/19 13:48:49;;;;;;;10.48;4.72;;;;;;;;;;4232065;33;20135;-65
2021/08/19 13:51:15;;;;;;;6.87;3.85;;;;;;;;;;4231873;33;20117;-65
2021/08/19 13:53:41;;;;;;;9.85;4.47;;;;;;;;;;4232142;33;20120;-65
2021/08/19 13:56:07;;;;;;;8.38;3.78;;;;;;;;;;4232270;33;20456;-65
2021/08/19 13:58:33;;;;;;;11.82;4.80;;;;;;;;;;4219178;33;20140;-66
2021/08/19 14:00:59;;;;;;;18.35;5.07;;;;;;;;;;4231497;33;20224;-65
2021/08/19 14:03:25;;;;;;;11.80;4.82;;;;;;;;;;4232111;33;20552;-64
2021/08/19 14:05:52;;;;;;;11.75;4.28;;;;;;;;;;4232524;33;20093;-65
2021/08/19 14:08:18;;;;;;;8.40;4.03;;;;;;;;;;4234750;33;20267;-68
2021/08/19 14:10:44;;;;;;;6.37;4.10;;;;;;;;;;4221420;33;20160;-69
2021/08/19 14:13:10;;;;;;;6.10;3.95;;;;;;;;;;4234176;33;20128;-68
2021/08/19 14:15:39;;;;;;;11.52;5.10;;;;;;;;;;4234216;33;20208;-69
2021/08/19 14:18:08;;;;;;;8.88;4.78;;;;;;;;;;4221001;33;20128;-69
2021/08/19 14:20:34;;;;;;;9.85;4.60;;;;;;;;;;4221121;33;20124;-68
2021/08/19 14:23:00;;;;;;;13.80;5.22;;;;;;;;;;4234269;33;20609;-68
2021/08/19 14:25:26;;;;;;;13.23;5.22;;;;;;;;;;4233937;33;20199;-68
2021/08/19 14:27:52;;;;;;;8.38;4.80;;;;;;;;;;4233987;33;20117;-68
2021/08/19 14:30:18;;;;;;;17.08;4.72;;;;;;;;;;4234204;33;20124;-67
2021/08/19 14:32:44;;;;;;;14.13;4.90;;;;;;;;;;4233927;33;20109;-68
2021/08/19 14:35:10;;;;;;;7.15;4.12;;;;;;;;;;4221037;33;20311;-69
2021/08/19 14:37:37;;;;;;;9.73;4.22;;;;;;;;;;4233859;33;20581;-68
2021/08/19 14:40:04;;;;;;;6.87;4.60;;;;;;;;;;4233992;33;20132;-68
2021/08/19 14:42:30;;;;;;;7.57;3.90;;;;;;;;;;4234177;33;20525;-69
2021/08/19 14:44:56;;;;;;;9.80;4.40;;;;;;;;;;4234043;33;20121;-69
2021/08/19 14:47:21;;;;;;;12.73;4.47;;;;;;;;;;4221070;33;20109;-68
2021/08/19 14:49:47;;;;;;;21.20;4.75;;;;;;;;;;4233825;33;20320;-69